Impacts METAR Board
IDs:

KORD - Chicago/O'Hare Intl, IL, US

Updated at: 1300 UTC 21 Aug 2019
Potential Impact None Slight Moderate High
Time 21/01Z 21/02Z 21/03Z 21/04Z 21/05Z 21/06Z 21/07Z 21/08Z 21/09Z 21/10Z 21/11Z 21/12Z 21/13Z
Temp73 72 70 70 70 68 67 66 65 65 65 65 70
Dewpt68 67 67 66 64 64 64 64 64 64 63 64 66
Altim29.92 29.93 29.96 29.99 29.98 29.97 29.97 29.96 29.94 29.94 29.92 29.95 29.97
VIS10 10 10 10 10 10 10 10 10 10 10 10 10
CIG-- -- -- 250 -- -- -- -- -- -- -- -- --
CoverSCTSCTSCTBKNFEWCLRCLRCLRCLRCLRFEWFEWSCT
FltCatVFRVFRVFRVFRVFRVFRVFRVFRVFRVFRVFRVFRVFR
WX--------------------------
WDir20015024028002800002500260240
WSpd3 3 4 5 0 3 0 0 0 3 0 3 6
WGst-- -- -- -- -- -- -- -- -- -- -- -- --
Raw hourly METARs
KORD 210051Z 20003KT 10SM FEW015 FEW035 SCT250 23/20 A2992 RMK AO2 SLP126 T02280200
KORD 210151Z 15003KT 10SM FEW018 FEW035 SCT250 22/19 A2993 RMK AO2 SLP131 T02220194
KORD 210251Z 24004KT 10SM FEW015 SCT250 21/19 A2996 RMK AO2 SLP142 T02110194 53021
KORD 210351Z 28005KT 10SM SCT020 BKN250 21/19 A2999 RMK AO2 SLP150 T02110189
KORD 210451Z 00000KT 10SM FEW020 FEW250 21/18 A2998 RMK AO2 SLP147 T02110178
KORD 210551Z 28003KT 10SM CLR 20/18 A2997 RMK AO2 SLP144 T02000178 10233 20200 402440200 50001
KORD 210651Z 00000KT 10SM CLR 19/18 A2997 RMK AO2 SLP146 T01940178
KORD 210751Z 00000KT 10SM CLR 19/18 A2996 RMK AO2 SLP142 T01890178
KORD 210851Z 00000KT 10SM CLR 18/18 A2994 RMK AO2 SLP135 T01830178 58009
KORD 210951Z 25003KT 10SM CLR 18/18 A2994 RMK AO2 SLP134 T01830178
KORD 211051Z 00000KT 10SM FEW080 18/17 A2992 RMK AO2 SLP127 T01830172
KORD 211151Z 26003KT 10SM FEW040 FEW250 18/18 A2995 RMK AO2 SLP138 70035 T01830178 10200 20183 53003
KORD 211251Z 24006KT 10SM FEW040 FEW080 SCT250 21/19 A2997 RMK AO2 SLP145 T02110189



Page loaded:  13:20 UTC  |   06:20 AM Pacific  |   07:20 AM Mountain  |   08:20 AM Central  |   09:20 AM Eastern

 

ADVISORIES

FORECASTS

FORECASTS

OBSERVATIONS

USER TOOLS

ABOUT US